createdAt,value
2017-07-27T00:00:04.140Z,1002.92
2017-07-27T00:00:44.663Z,1002.92
2017-07-27T00:01:25.179Z,1002.93
2017-07-27T00:02:05.706Z,1002.9
2017-07-27T00:02:46.224Z,1002.89
2017-07-27T00:03:26.737Z,1002.89
2017-07-27T00:04:07.284Z,1002.85
2017-07-27T00:04:47.811Z,1002.85
2017-07-27T00:05:28.353Z,1002.82
2017-07-27T00:06:08.861Z,1002.84
2017-07-27T00:06:49.381Z,1002.83
2017-07-27T00:07:29.896Z,1002.79
2017-07-27T00:08:10.413Z,1002.8
2017-07-27T00:08:50.925Z,1002.84
2017-07-27T00:09:31.426Z,1002.85
2017-07-27T00:10:11.931Z,1002.86
2017-07-27T00:10:52.481Z,1002.87
2017-07-27T00:11:32.999Z,1002.89
2017-07-27T00:12:13.518Z,1002.91
2017-07-27T00:12:54.018Z,1002.88
2017-07-27T00:13:34.545Z,1002.86
2017-07-27T00:14:15.144Z,1002.88
2017-07-27T00:14:55.647Z,1002.86
2017-07-27T00:15:36.155Z,1002.84
2017-07-27T00:16:16.643Z,1002.85
2017-07-27T00:16:57.150Z,1002.82
2017-07-27T00:17:37.695Z,1002.83
2017-07-27T00:18:18.243Z,1002.8
2017-07-27T00:18:58.741Z,1002.77
2017-07-27T00:19:39.220Z,1002.77
2017-07-27T00:20:19.721Z,1002.75
2017-07-27T00:21:00.246Z,1002.72
2017-07-27T00:21:40.721Z,1002.73
2017-07-27T00:22:21.243Z,1002.72
2017-07-27T00:23:01.750Z,1002.71
2017-07-27T00:23:42.238Z,1002.71
2017-07-27T00:24:22.755Z,1002.72
2017-07-27T00:25:03.298Z,1002.73
2017-07-27T00:25:43.825Z,1002.74
2017-07-27T00:26:24.332Z,1002.75
2017-07-27T00:27:04.815Z,1002.74
2017-07-27T00:27:45.313Z,1002.73
2017-07-27T00:28:25.801Z,1002.72
2017-07-27T00:29:06.370Z,1002.73
2017-07-27T00:29:46.840Z,1002.72
2017-07-27T00:30:27.331Z,1002.71
2017-07-27T00:31:07.821Z,1002.73
2017-07-27T00:31:48.324Z,1002.7
2017-07-27T00:32:28.849Z,1002.69
2017-07-27T00:33:09.362Z,1002.67
2017-07-27T00:33:49.865Z,1002.68
2017-07-27T00:34:30.381Z,1002.66
2017-07-27T00:35:10.919Z,1002.69
2017-07-27T00:35:51.428Z,1002.69
2017-07-27T00:36:31.978Z,1002.69
2017-07-27T00:37:12.507Z,1002.71
2017-07-27T00:37:53.051Z,1002.72
2017-07-27T00:38:33.580Z,1002.71
2017-07-27T00:39:14.119Z,1002.76
2017-07-27T00:39:54.632Z,1002.72
2017-07-27T00:40:35.171Z,1002.73
2017-07-27T00:41:15.698Z,1002.76
2017-07-27T00:41:56.204Z,1002.76
2017-07-27T00:42:36.709Z,1002.76
2017-07-27T00:43:17.231Z,1002.76
2017-07-27T00:43:57.697Z,1002.77
2017-07-27T00:44:38.255Z,1002.79
2017-07-27T00:45:18.763Z,1002.77
2017-07-27T00:45:59.297Z,1002.76
2017-07-27T00:46:39.829Z,1002.77
2017-07-27T00:47:20.331Z,1002.76
2017-07-27T00:48:00.871Z,1002.8
2017-07-27T00:48:41.378Z,1002.81
2017-07-27T00:49:21.902Z,1002.77
2017-07-27T00:50:02.393Z,1002.81
2017-07-27T00:50:42.867Z,1002.78
2017-07-27T00:51:23.451Z,1002.83
2017-07-27T00:52:03.936Z,1002.79
2017-07-27T00:52:44.452Z,1002.8
2017-07-27T00:53:24.947Z,1002.78
2017-07-27T00:54:05.487Z,1002.82
2017-07-27T00:54:46.007Z,1002.8
2017-07-27T00:55:26.506Z,1002.84
2017-07-27T00:56:07.006Z,1002.84
2017-07-27T00:56:47.585Z,1002.84
2017-07-27T00:57:28.085Z,1002.79
2017-07-27T00:58:08.599Z,1002.78
2017-07-27T00:58:49.155Z,1002.83
2017-07-27T00:59:29.690Z,1002.77
2017-07-27T01:00:10.175Z,1002.82
2017-07-27T01:00:50.677Z,1002.79
2017-07-27T01:01:31.179Z,1002.84
2017-07-27T01:02:11.670Z,1002.73
2017-07-27T01:02:52.175Z,1002.78
2017-07-27T01:03:32.679Z,1002.76
2017-07-27T01:04:13.134Z,1002.75
2017-07-27T01:04:53.654Z,1002.72
2017-07-27T01:05:34.147Z,1002.77
2017-07-27T01:06:14.652Z,1002.8
2017-07-27T01:06:55.177Z,1002.77
2017-07-27T01:07:35.665Z,1002.72
2017-07-27T01:08:16.158Z,1002.69
2017-07-27T01:08:56.672Z,1002.7
2017-07-27T01:09:37.211Z,1002.71
2017-07-27T01:10:17.714Z,1002.68
2017-07-27T01:10:58.248Z,1002.66
2017-07-27T01:11:38.754Z,1002.68
2017-07-27T01:12:19.261Z,1002.69
2017-07-27T01:12:59.779Z,1002.66
2017-07-27T01:13:40.378Z,1002.69
2017-07-27T01:14:20.900Z,1002.73
2017-07-27T01:15:01.448Z,1002.72
2017-07-27T01:15:41.979Z,1002.7
2017-07-27T01:16:22.500Z,1002.69
2017-07-27T01:17:03.011Z,1002.67
2017-07-27T01:17:43.541Z,1002.71
2017-07-27T01:18:24.067Z,1002.69
2017-07-27T01:19:04.605Z,1002.67
2017-07-27T01:19:45.128Z,1002.67
2017-07-27T01:20:25.648Z,1002.67
2017-07-27T01:21:06.189Z,1002.6
2017-07-27T01:21:46.695Z,1002.61
2017-07-27T01:22:27.259Z,1002.6
2017-07-27T01:23:07.741Z,1002.58
2017-07-27T01:23:48.244Z,1002.58
2017-07-27T01:24:28.783Z,1002.58
2017-07-27T01:25:09.222Z,1002.55
2017-07-27T01:25:49.784Z,1002.54
2017-07-27T01:26:30.270Z,1002.5
2017-07-27T01:27:10.867Z,1002.5
2017-07-27T01:27:51.255Z,1002.5
2017-07-27T01:28:31.832Z,1002.43
2017-07-27T01:29:12.352Z,1002.48
2017-07-27T01:29:52.877Z,1002.46
2017-07-27T01:30:33.387Z,1002.43
2017-07-27T01:31:13.897Z,1002.4
2017-07-27T01:31:54.415Z,1002.38
2017-07-27T01:32:34.927Z,1002.38
2017-07-27T01:33:15.486Z,1002.37
2017-07-27T01:33:55.993Z,1002.36
2017-07-27T01:34:36.488Z,1002.34
2017-07-27T01:35:17.011Z,1002.34
2017-07-27T01:35:57.484Z,1002.37
2017-07-27T01:36:37.999Z,1002.32
2017-07-27T01:37:18.554Z,1002.32
2017-07-27T01:37:59.063Z,1002.35
2017-07-27T01:38:39.590Z,1002.33
2017-07-27T01:39:20.120Z,1002.31
2017-07-27T01:40:00.643Z,1002.29
2017-07-27T01:40:41.105Z,1002.27
2017-07-27T01:41:23.312Z,1002.31
2017-07-27T01:42:03.804Z,1002.32
2017-07-27T01:42:44.299Z,1002.32
2017-07-27T01:43:24.786Z,1002.31
2017-07-27T01:44:05.271Z,1002.31
2017-07-27T01:44:45.761Z,1002.29
2017-07-27T01:45:26.285Z,1002.29
2017-07-27T01:46:06.776Z,1002.3
2017-07-27T01:46:47.287Z,1002.3
2017-07-27T01:47:27.817Z,1002.28
2017-07-27T01:48:08.310Z,1002.26
2017-07-27T01:48:48.862Z,1002.24
2017-07-27T01:49:29.358Z,1002.26
2017-07-27T01:50:09.861Z,1002.21
2017-07-27T01:50:50.358Z,1002.24
2017-07-27T01:51:30.920Z,1002.25
2017-07-27T01:52:11.475Z,1002.24
2017-07-27T01:52:51.957Z,1002.23
2017-07-27T01:53:32.453Z,1002.24
2017-07-27T01:54:12.939Z,1002.21
2017-07-27T01:54:53.448Z,1002.24
2017-07-27T01:55:33.992Z,1002.24
2017-07-27T01:56:14.513Z,1002.21
2017-07-27T01:56:55.031Z,1002.22
2017-07-27T01:57:35.551Z,1002.2
2017-07-27T01:58:16.095Z,1002.23
2017-07-27T01:58:56.622Z,1002.2
2017-07-27T01:59:37.179Z,1002.25
2017-07-27T02:00:17.727Z,1002.23
2017-07-27T02:00:58.267Z,1002.21
2017-07-27T02:01:38.789Z,1002.22
2017-07-27T02:02:19.293Z,1002.24
2017-07-27T02:02:59.841Z,1002.22
2017-07-27T02:03:40.351Z,1002.2
2017-07-27T02:04:20.876Z,1002.23
2017-07-27T02:05:01.406Z,1002.22
2017-07-27T02:05:41.936Z,1002.19
2017-07-27T02:06:22.484Z,1002.19
2017-07-27T02:07:03.008Z,1002.15
2017-07-27T02:07:43.588Z,1002.13
2017-07-27T02:08:24.158Z,1002.16
2017-07-27T02:09:04.717Z,1002.15
2017-07-27T02:09:45.248Z,1002.12
2017-07-27T02:10:25.792Z,1002.14
2017-07-27T02:11:06.284Z,1002.14
2017-07-27T02:11:46.782Z,1002.14
2017-07-27T02:12:27.295Z,1002.14
2017-07-27T02:13:07.842Z,1002.16
2017-07-27T02:13:48.335Z,1002.18
2017-07-27T02:14:28.814Z,1002.16
2017-07-27T02:15:09.329Z,1002.15
2017-07-27T02:15:49.925Z,1002.2
2017-07-27T02:16:30.438Z,1002.18
2017-07-27T02:17:10.959Z,1002.19
2017-07-27T02:17:51.486Z,1002.2
2017-07-27T02:18:32.046Z,1002.2
2017-07-27T02:19:12.566Z,1002.22
2017-07-27T02:19:53.088Z,1002.2
2017-07-27T02:20:33.587Z,1002.21
2017-07-27T02:21:14.138Z,1002.22
2017-07-27T02:21:54.618Z,1002.23
2017-07-27T02:22:35.151Z,1002.27
2017-07-27T02:23:15.665Z,1002.25
2017-07-27T02:23:56.182Z,1002.25
2017-07-27T02:24:36.712Z,1002.26
2017-07-27T02:25:17.225Z,1002.24
2017-07-27T02:25:57.766Z,1002.25
2017-07-27T02:26:38.286Z,1002.23
2017-07-27T02:27:18.811Z,1002.19
2017-07-27T02:27:59.392Z,1002.23
2017-07-27T02:28:39.954Z,1002.25
2017-07-27T02:29:20.473Z,1002.21
2017-07-27T02:30:01.013Z,1002.26
2017-07-27T02:30:41.539Z,1002.28
2017-07-27T02:31:22.044Z,1002.27
2017-07-27T02:32:02.582Z,1002.26
2017-07-27T02:32:43.102Z,1002.26
2017-07-27T02:33:23.641Z,1002.29
2017-07-27T02:34:04.131Z,1002.25
2017-07-27T02:34:44.654Z,1002.32
2017-07-27T02:35:25.184Z,1002.29
2017-07-27T02:36:05.664Z,1002.29
2017-07-27T02:36:46.199Z,1002.24
2017-07-27T02:37:26.689Z,1002.26
2017-07-27T02:38:07.188Z,1002.26
2017-07-27T02:38:47.676Z,1002.24
2017-07-27T02:39:28.174Z,1002.22
2017-07-27T02:40:08.694Z,1002.23
2017-07-27T02:40:49.197Z,1002.21
2017-07-27T02:41:29.687Z,1002.16
2017-07-27T02:42:10.206Z,1002.16
2017-07-27T02:42:50.737Z,1002.2
2017-07-27T02:43:31.393Z,1002.13
2017-07-27T02:44:11.914Z,1002.15
2017-07-27T02:44:52.447Z,1002.17
2017-07-27T02:45:33.055Z,1002.16
2017-07-27T02:46:13.457Z,1002.15
2017-07-27T02:46:54.025Z,1002.15
2017-07-27T02:47:34.604Z,1002.15
2017-07-27T02:48:15.139Z,1002.18
2017-07-27T02:48:55.763Z,1002.17
2017-07-27T02:49:36.262Z,1002.14
2017-07-27T02:50:16.845Z,1002.12
2017-07-27T02:50:57.371Z,1002.11
2017-07-27T02:51:37.967Z,1002.12
2017-07-27T02:52:18.476Z,1002.13
2017-07-27T02:52:59.398Z,1002.11
2017-07-27T02:53:39.790Z,1002.1
2017-07-27T02:54:20.362Z,1002.12
2017-07-27T02:55:00.977Z,1002.09
2017-07-27T02:55:41.561Z,1002.09
2017-07-27T02:56:22.205Z,1002.11
2017-07-27T02:57:02.917Z,1002.11
2017-07-27T02:57:43.449Z,1002.05
2017-07-27T02:58:24.306Z,1002.1
2017-07-27T02:59:05.392Z,1002.12
2017-07-27T02:59:47.022Z,1002.09
2017-07-27T03:00:27.597Z,1002.09
2017-07-27T03:01:08.269Z,1002.1
2017-07-27T03:01:49.190Z,1002.1
2017-07-27T03:02:29.878Z,1002.11
2017-07-27T03:03:11.365Z,1002.12
2017-07-27T03:03:52.413Z,1002.1
2017-07-27T03:04:33.285Z,1002.08
2017-07-27T03:05:14.085Z,1002.1
2017-07-27T03:05:54.959Z,1002.11
2017-07-27T03:06:36.851Z,1002.1
2017-07-27T03:07:18.112Z,1002.09
2017-07-27T03:08:00.157Z,1002.09
2017-07-27T03:08:40.833Z,1002.08
2017-07-27T03:09:21.544Z,1002.07
2017-07-27T03:10:02.941Z,1002.08
2017-07-27T03:10:43.614Z,1002.07
2017-07-27T03:11:24.431Z,1002.06
2017-07-27T03:12:05.287Z,1002.05
2017-07-27T03:12:46.877Z,1002.11
2017-07-27T03:13:29.371Z,1002.09
2017-07-27T03:14:10.949Z,1002.1
2017-07-27T03:14:51.770Z,1002.11
2017-07-27T03:15:32.797Z,1002.12
2017-07-27T03:16:13.525Z,1002.13
2017-07-27T03:16:56.215Z,1002.09
2017-07-27T03:17:38.531Z,1002.14
2017-07-27T03:18:19.337Z,1002.1
2017-07-27T03:19:00.329Z,1002.1
2017-07-27T03:19:41.064Z,1002.08
2017-07-27T03:20:21.967Z,1002.09
2017-07-27T03:21:03.688Z,1002.1
2017-07-27T03:21:44.567Z,1002.1
2017-07-27T03:22:25.909Z,1002.09
2017-07-27T03:23:08.044Z,1002.07
2017-07-27T03:23:50.686Z,1002.07
2017-07-27T03:24:32.059Z,1002.12
2017-07-27T03:25:14.915Z,1002.07
2017-07-27T03:26:00.814Z,1002.07
2017-07-27T03:26:43.429Z,1002.07
2017-07-27T03:27:25.730Z,1002.06
2017-07-27T03:28:07.339Z,1002.04
2017-07-27T03:28:50.410Z,1002.03
2017-07-27T03:29:32.681Z,1002.07
2017-07-27T03:30:13.973Z,1002.07
2017-07-27T03:30:56.653Z,1002.05
2017-07-27T03:31:37.379Z,1002.08
2017-07-27T03:32:18.355Z,1002.06
2017-07-27T03:32:58.899Z,1002.04
2017-07-27T03:33:39.444Z,1002.06
2017-07-27T03:34:19.973Z,1002.03
2017-07-27T03:35:00.609Z,1002.03
2017-07-27T03:35:41.185Z,1002.07
2017-07-27T03:36:21.697Z,1002.1
2017-07-27T03:37:02.282Z,1002.08
2017-07-27T03:37:42.840Z,1002.11
2017-07-27T03:38:23.413Z,1002.08
2017-07-27T03:39:04.040Z,1002.15
2017-07-27T03:39:44.526Z,1002.13
2017-07-27T03:40:25.098Z,1002.1
2017-07-27T03:41:05.702Z,1002.09
2017-07-27T03:41:46.176Z,1002.09
2017-07-27T03:42:26.684Z,1002.11
2017-07-27T03:43:07.352Z,1002.09
2017-07-27T03:43:48.031Z,1002.1
2017-07-27T03:44:28.677Z,1002.08
2017-07-27T03:45:09.356Z,1002.09
2017-07-27T03:45:50.021Z,1002.05
2017-07-27T03:46:30.644Z,1002.11
2017-07-27T03:47:11.582Z,1002.12
2017-07-27T03:47:52.779Z,1002.1
2017-07-27T03:48:33.559Z,1002.11
2017-07-27T03:49:14.358Z,1002.07
2017-07-27T03:49:55.959Z,1002.1
2017-07-27T03:50:36.760Z,1002.09
2017-07-27T03:51:17.410Z,1002.13
2017-07-27T03:51:58.289Z,1002.17
2017-07-27T03:52:38.905Z,1002.16
2017-07-27T03:53:19.866Z,1002.16
2017-07-27T03:54:00.583Z,1002.14
2017-07-27T03:54:41.171Z,1002.13
2017-07-27T03:55:21.985Z,1002.15
2017-07-27T03:56:02.417Z,1002.14
2017-07-27T03:56:43.034Z,1002.15
2017-07-27T03:57:23.648Z,1002.17
2017-07-27T03:58:04.148Z,1002.21
2017-07-27T03:58:44.703Z,1002.21
2017-07-27T03:59:25.275Z,1002.17
2017-07-27T04:00:05.813Z,1002.21
2017-07-27T04:00:46.323Z,1002.16
2017-07-27T04:01:26.804Z,1002.21
2017-07-27T04:02:07.339Z,1002.21
2017-07-27T04:02:47.835Z,1002.2
2017-07-27T04:03:28.382Z,1002.21
2017-07-27T04:04:08.929Z,1002.18
2017-07-27T04:04:49.433Z,1002.15
2017-07-27T04:05:29.994Z,1002.14
2017-07-27T04:06:10.507Z,1002.14
2017-07-27T04:06:51.021Z,1002.12
2017-07-27T04:07:31.556Z,1002.11
2017-07-27T04:08:12.065Z,1002.03
2017-07-27T04:08:52.593Z,1002.04
2017-07-27T04:09:33.181Z,1002.03
2017-07-27T04:10:13.767Z,1002.05
2017-07-27T04:10:54.316Z,1002.05
2017-07-27T04:11:34.849Z,1002.1
2017-07-27T04:12:15.381Z,1002.08
2017-07-27T04:12:55.919Z,1002.08
2017-07-27T04:13:36.441Z,1002.05
2017-07-27T04:14:16.945Z,1002.03
2017-07-27T04:14:57.484Z,1002.03
2017-07-27T04:15:37.980Z,1002.06
2017-07-27T04:16:18.474Z,1002.06
2017-07-27T04:16:58.972Z,1002.06
2017-07-27T04:17:39.464Z,1002.03
2017-07-27T04:18:19.962Z,1002.03
2017-07-27T04:19:00.499Z,1002.02
2017-07-27T04:19:41.232Z,1002.07
2017-07-27T04:20:21.809Z,1001.99
2017-07-27T04:21:02.427Z,1002.03
2017-07-27T04:21:43.018Z,1002
2017-07-27T04:22:23.499Z,1002
2017-07-27T04:23:04.053Z,1001.98
2017-07-27T04:23:44.570Z,1001.96
2017-07-27T04:24:25.295Z,1001.93
2017-07-27T04:25:05.775Z,1001.91
2017-07-27T04:25:46.310Z,1001.87
2017-07-27T04:26:26.816Z,1001.86
2017-07-27T04:27:07.299Z,1001.88
2017-07-27T04:27:47.844Z,1001.91
2017-07-27T04:28:28.329Z,1001.9
2017-07-27T04:29:08.862Z,1001.86
2017-07-27T04:29:49.394Z,1001.86
2017-07-27T04:30:29.865Z,1001.84
2017-07-27T04:31:10.427Z,1001.87
2017-07-27T04:31:50.964Z,1001.84
2017-07-27T04:32:31.502Z,1001.89
2017-07-27T04:33:12.049Z,1001.89
2017-07-27T04:33:52.577Z,1001.91
2017-07-27T04:34:33.125Z,1001.93
2017-07-27T04:35:13.644Z,1001.94
2017-07-27T04:35:54.163Z,1001.89
2017-07-27T04:36:34.684Z,1001.93
2017-07-27T04:37:15.198Z,1001.98
2017-07-27T04:37:55.727Z,1002
2017-07-27T04:38:36.278Z,1002.01
2017-07-27T04:39:16.801Z,1002
2017-07-27T04:39:57.314Z,1002.01
2017-07-27T04:40:37.842Z,1002.05
2017-07-27T04:41:18.379Z,1002.12
2017-07-27T04:41:58.893Z,1002.1
2017-07-27T04:42:39.431Z,1002.11
2017-07-27T04:43:19.922Z,1002.08
2017-07-27T04:44:00.443Z,1002.05
2017-07-27T04:44:40.934Z,1002.09
2017-07-27T04:45:21.455Z,1002.07
2017-07-27T04:46:02.089Z,1002.08
2017-07-27T04:46:42.615Z,1002.11
2017-07-27T04:47:23.143Z,1002.08
2017-07-27T04:48:03.672Z,1002.05
2017-07-27T04:48:44.170Z,1002.04
2017-07-27T04:49:24.710Z,1002.05
2017-07-27T04:50:05.240Z,1002.04
2017-07-27T04:50:45.752Z,1002.06
2017-07-27T04:51:26.273Z,1002.05
2017-07-27T04:52:06.816Z,1002.05
2017-07-27T04:52:47.340Z,1002.04
2017-07-27T04:53:27.855Z,1002
2017-07-27T04:54:08.369Z,1001.98
2017-07-27T04:54:48.994Z,1001.97
2017-07-27T04:55:29.534Z,1001.97
2017-07-27T04:56:10.072Z,1001.96
2017-07-27T04:56:50.601Z,1001.98
2017-07-27T04:57:31.294Z,1001.97
2017-07-27T04:58:11.961Z,1002.01
2017-07-27T04:58:52.460Z,1001.94
2017-07-27T04:59:32.966Z,1001.96
2017-07-27T05:00:13.476Z,1001.95
2017-07-27T05:00:53.986Z,1001.98
2017-07-27T05:01:34.494Z,1001.94
2017-07-27T05:02:14.993Z,1001.94
2017-07-27T05:02:57.499Z,1001.91
2017-07-27T05:03:42.953Z,1001.9
2017-07-27T05:04:24.780Z,1001.88
2017-07-27T05:05:06.074Z,1001.87
2017-07-27T05:05:46.531Z,1001.89
2017-07-27T05:06:27.079Z,1001.9
2017-07-27T05:07:07.563Z,1001.94
2017-07-27T05:07:48.173Z,1001.93
2017-07-27T05:08:28.669Z,1001.93
2017-07-27T05:09:09.191Z,1001.94
2017-07-27T05:09:49.706Z,1001.99
2017-07-27T05:10:30.218Z,1002.02
2017-07-27T05:11:10.743Z,1002.01
2017-07-27T05:11:51.301Z,1002.04
2017-07-27T05:12:31.859Z,1002.01
2017-07-27T05:13:12.419Z,1001.98
2017-07-27T05:13:52.955Z,1001.98
2017-07-27T05:14:33.486Z,1001.97
2017-07-27T05:15:14.056Z,1001.99
2017-07-27T05:15:54.629Z,1002.01
2017-07-27T05:16:35.163Z,1002.01
2017-07-27T05:17:15.723Z,1002.06
2017-07-27T05:17:56.270Z,1002.07
2017-07-27T05:18:36.788Z,1002.1
2017-07-27T05:19:17.298Z,1002.07
2017-07-27T05:19:57.828Z,1002.1
2017-07-27T05:20:38.400Z,1002.1
2017-07-27T05:21:18.918Z,1002.09
2017-07-27T05:21:59.459Z,1002.07
2017-07-27T05:22:39.936Z,1002.09
2017-07-27T05:23:20.450Z,1002.1
2017-07-27T05:24:00.963Z,1002.09
2017-07-27T05:24:41.503Z,1002.1
2017-07-27T05:25:22.030Z,1002.09
2017-07-27T05:26:02.573Z,1002.09
2017-07-27T05:26:43.141Z,1002.06
2017-07-27T05:27:23.685Z,1002.04
2017-07-27T05:28:04.165Z,1002
2017-07-27T05:28:44.723Z,1002.01
2017-07-27T05:29:25.308Z,1002.01
2017-07-27T05:30:05.794Z,1001.94
2017-07-27T05:30:46.427Z,1001.96
2017-07-27T05:31:26.965Z,1001.9
2017-07-27T05:32:08.486Z,1001.86
2017-07-27T05:32:48.889Z,1001.8
2017-07-27T05:33:29.431Z,1001.8
2017-07-27T05:34:09.958Z,1001.83
2017-07-27T05:34:50.464Z,1001.8
2017-07-27T05:35:30.988Z,1001.8
2017-07-27T05:36:11.500Z,1001.77
2017-07-27T05:36:52.142Z,1001.81
2017-07-27T05:37:32.590Z,1001.79
2017-07-27T05:38:13.130Z,1001.82
2017-07-27T05:38:53.745Z,1001.81
2017-07-27T05:39:36.028Z,1001.82
2017-07-27T05:40:17.528Z,1001.82
2017-07-27T05:40:58.009Z,1001.78
2017-07-27T05:41:38.522Z,1001.75
2017-07-27T05:42:19.079Z,1001.77
2017-07-27T05:42:59.650Z,1001.71
2017-07-27T05:43:40.112Z,1001.71
2017-07-27T05:44:20.638Z,1001.71
2017-07-27T05:45:01.184Z,1001.71
2017-07-27T05:45:41.726Z,1001.74
2017-07-27T05:46:22.265Z,1001.73
2017-07-27T05:47:02.796Z,1001.76
2017-07-27T05:47:43.283Z,1001.78
2017-07-27T05:48:25.337Z,1001.74
2017-07-27T05:49:05.918Z,1001.78
2017-07-27T05:49:46.470Z,1001.82
2017-07-27T05:50:26.978Z,1001.79
2017-07-27T05:51:07.579Z,1001.81
2017-07-27T05:51:48.145Z,1001.78
2017-07-27T05:52:28.647Z,1001.8
2017-07-27T05:53:09.151Z,1001.8
2017-07-27T05:53:49.706Z,1001.83
2017-07-27T05:54:30.303Z,1001.8
2017-07-27T05:55:12.475Z,1001.86
2017-07-27T05:55:52.986Z,1001.86
2017-07-27T05:56:33.555Z,1001.92
2017-07-27T05:57:15.994Z,1001.98
2017-07-27T05:57:56.547Z,1002.08
2017-07-27T05:58:37.058Z,1002.09
2017-07-27T05:59:18.236Z,1002.09
2017-07-27T05:59:58.754Z,1002.13
2017-07-27T06:00:39.469Z,1002.12
2017-07-27T06:01:19.925Z,1002.17
2017-07-27T06:02:00.448Z,1002.18
2017-07-27T06:02:41.041Z,1002.2
2017-07-27T06:03:21.616Z,1002.22
2017-07-27T06:04:03.925Z,1002.22
2017-07-27T06:04:44.597Z,1002.18
2017-07-27T06:05:25.180Z,1002.22
2017-07-27T06:06:05.740Z,1002.17
2017-07-27T06:06:46.273Z,1002.19
2017-07-27T06:07:26.763Z,1002.21
2017-07-27T06:08:07.358Z,1002.2
2017-07-27T06:08:47.872Z,1002.18
2017-07-27T06:09:28.605Z,1002.2
2017-07-27T06:10:09.136Z,1002.18
2017-07-27T06:10:49.728Z,1002.16
2017-07-27T06:11:30.305Z,1002.17
2017-07-27T06:12:11.147Z,1002.21
2017-07-27T06:12:54.129Z,1002.21
2017-07-27T06:13:36.448Z,1002.26
2017-07-27T06:14:20.682Z,1002.23
2017-07-27T06:15:01.217Z,1002.24
2017-07-27T06:15:42.025Z,1002.27
2017-07-27T06:16:24.437Z,1002.22
2017-07-27T06:17:05.062Z,1002.2
2017-07-27T06:17:45.463Z,1002.23
2017-07-27T06:18:26.002Z,1002.19
2017-07-27T06:19:06.610Z,1002.22
2017-07-27T06:19:47.138Z,1002.2
2017-07-27T06:20:27.686Z,1002.17
2017-07-27T06:21:08.184Z,1002.16
2017-07-27T06:21:48.748Z,1002.14
2017-07-27T06:22:29.258Z,1002.16
2017-07-27T06:23:09.796Z,1002.21
2017-07-27T06:23:51.201Z,1002.21
2017-07-27T06:24:31.784Z,1002.2
2017-07-27T06:25:12.324Z,1002.24
2017-07-27T06:25:52.906Z,1002.23
2017-07-27T06:26:34.178Z,1002.26
2017-07-27T06:27:14.661Z,1002.29
2017-07-27T06:27:55.174Z,1002.31
2017-07-27T06:28:35.770Z,1002.35
2017-07-27T06:29:16.310Z,1002.34
2017-07-27T06:29:56.851Z,1002.31
2017-07-27T06:30:37.367Z,1002.36
2017-07-27T06:31:17.904Z,1002.35
2017-07-27T06:31:58.435Z,1002.37
2017-07-27T06:32:38.990Z,1002.38
2017-07-27T06:33:19.506Z,1002.34
2017-07-27T06:34:00.039Z,1002.38
2017-07-27T06:36:29.692Z,1002.34
2017-07-27T06:37:10.167Z,1002.26
2017-07-27T06:37:50.664Z,1002.25
2017-07-27T06:38:31.175Z,1002.22
2017-07-27T06:39:11.681Z,1002.22
2017-07-27T06:39:52.223Z,1002.15
2017-07-27T06:40:32.741Z,1002.12
2017-07-27T06:41:13.253Z,1002.11
2017-07-27T06:41:53.752Z,1002.08
2017-07-27T06:42:34.283Z,1002.09
2017-07-27T06:43:14.821Z,1002.05
2017-07-27T06:43:55.333Z,1002.09
2017-07-27T06:44:35.852Z,1002.14
2017-07-27T06:45:17.056Z,1002.12
2017-07-27T06:45:57.714Z,1002.11
2017-07-27T06:46:38.354Z,1002.15
2017-07-27T06:47:18.866Z,1002.11
2017-07-27T06:47:59.389Z,1002.11
2017-07-27T06:48:39.907Z,1002.12
2017-07-27T06:49:20.402Z,1002.07
2017-07-27T06:50:01.254Z,1002.09
2017-07-27T06:50:42.030Z,1002.14
2017-07-27T06:51:22.660Z,1002.09
2017-07-27T06:52:03.172Z,1002.08
2017-07-27T06:52:43.719Z,1002.04
2017-07-27T06:53:24.233Z,1002.03
2017-07-27T06:54:04.962Z,1002.04
2017-07-27T06:54:45.753Z,1002.03
2017-07-27T06:55:26.269Z,1002.01
2017-07-27T06:56:06.736Z,1001.99
2017-07-27T06:56:47.359Z,1002.02
2017-07-27T06:57:27.953Z,1002.02
2017-07-27T06:58:08.403Z,1002.06
2017-07-27T06:58:49.142Z,1002.1
2017-07-27T06:59:29.483Z,1002.16
2017-07-27T07:00:09.984Z,1002.15
2017-07-27T07:00:50.471Z,1002.2
2017-07-27T07:01:32.021Z,1002.22
2017-07-27T07:02:12.613Z,1002.23
2017-07-27T07:02:53.566Z,1002.25
2017-07-27T07:03:33.867Z,1002.22
2017-07-27T07:04:14.428Z,1002.22
2017-07-27T07:04:54.956Z,1002.24
2017-07-27T07:05:35.446Z,1002.28
2017-07-27T07:06:15.987Z,1002.31
2017-07-27T07:06:56.481Z,1002.27
2017-07-27T07:07:37.137Z,1002.3
2017-07-27T07:08:18.171Z,1002.33
2017-07-27T07:08:58.854Z,1002.31
2017-07-27T07:09:39.380Z,1002.31
2017-07-27T07:10:20.041Z,1002.34
2017-07-27T07:11:00.541Z,1002.31
2017-07-27T07:11:41.058Z,1002.3
2017-07-27T07:12:21.563Z,1002.28
2017-07-27T07:13:02.923Z,1002.26
2017-07-27T07:13:43.394Z,1002.28
2017-07-27T07:14:23.929Z,1002.2
2017-07-27T07:15:04.457Z,1002.18
2017-07-27T07:15:44.953Z,1002.18
2017-07-27T07:16:25.513Z,1002.15
2017-07-27T07:17:06.304Z,1002.14
2017-07-27T07:17:47.033Z,1002.12
2017-07-27T07:18:28.082Z,1002.1
2017-07-27T07:19:08.434Z,1002.12
2017-07-27T07:19:49.137Z,1002.09
2017-07-27T07:20:30.025Z,1002.12
2017-07-27T07:21:10.686Z,1002.15
2017-07-27T07:21:51.637Z,1002.17
2017-07-27T07:22:33.105Z,1002.21
2017-07-27T07:23:13.838Z,1002.17
2017-07-27T07:23:54.398Z,1002.22
2017-07-27T07:24:35.168Z,1002.23
2017-07-27T07:25:15.606Z,1002.19
2017-07-27T07:25:56.192Z,1002.21
2017-07-27T07:26:36.710Z,1002.23
2017-07-27T07:27:17.267Z,1002.23
2017-07-27T07:27:57.806Z,1002.23
2017-07-27T07:28:38.342Z,1002.23
2017-07-27T07:29:18.845Z,1002.26
2017-07-27T07:29:59.349Z,1002.28
2017-07-27T07:30:39.883Z,1002.26
2017-07-27T07:31:20.480Z,1002.29
2017-07-27T07:32:01.006Z,1002.25
2017-07-27T07:32:41.478Z,1002.21
2017-07-27T07:33:22.036Z,1002.22
2017-07-27T07:34:02.885Z,1002.22
2017-07-27T07:34:43.415Z,1002.27
2017-07-27T07:35:23.914Z,1002.22
2017-07-27T07:36:04.461Z,1002.21
2017-07-27T07:36:44.993Z,1002.2
2017-07-27T07:37:25.535Z,1002.2
2017-07-27T07:38:06.050Z,1002.24
2017-07-27T07:38:46.563Z,1002.3
2017-07-27T07:39:27.158Z,1002.24
2017-07-27T07:40:07.820Z,1002.23
2017-07-27T07:40:48.296Z,1002.28
2017-07-27T07:41:28.868Z,1002.28
2017-07-27T07:42:09.521Z,1002.3
2017-07-27T07:42:50.375Z,1002.29
2017-07-27T07:43:30.906Z,1002.26
2017-07-27T07:44:11.466Z,1002.27
2017-07-27T07:44:52.013Z,1002.27
2017-07-27T07:45:32.669Z,1002.25
2017-07-27T07:46:13.189Z,1002.28
2017-07-27T07:46:53.684Z,1002.31
2017-07-27T07:47:34.313Z,1002.35
2017-07-27T07:48:14.781Z,1002.35
2017-07-27T07:48:55.480Z,1002.37
2017-07-27T07:49:36.048Z,1002.39
2017-07-27T07:50:16.700Z,1002.35
2017-07-27T07:50:57.270Z,1002.36
2017-07-27T07:51:37.797Z,1002.37
2017-07-27T07:52:18.405Z,1002.36
2017-07-27T07:52:59.140Z,1002.34
2017-07-27T07:53:39.782Z,1002.31
2017-07-27T07:54:20.331Z,1002.33
2017-07-27T07:55:00.912Z,1002.3
2017-07-27T07:55:41.708Z,1002.33
2017-07-27T07:56:22.592Z,1002.32
2017-07-27T07:57:03.128Z,1002.32
2017-07-27T07:57:43.633Z,1002.33
2017-07-27T07:58:24.195Z,1002.31
2017-07-27T07:59:04.731Z,1002.34
2017-07-27T07:59:45.395Z,1002.36
2017-07-27T08:00:26.013Z,1002.37
2017-07-27T08:01:06.463Z,1002.33
2017-07-27T08:01:46.972Z,1002.35
2017-07-27T08:02:27.684Z,1002.34
2017-07-27T08:03:08.244Z,1002.31
2017-07-27T08:03:48.845Z,1002.37
2017-07-27T08:04:29.151Z,1002.34
2017-07-27T08:05:09.787Z,1002.31
2017-07-27T08:05:50.315Z,1002.28
2017-07-27T08:06:31.758Z,1002.3
2017-07-27T08:07:12.131Z,1002.32
2017-07-27T08:07:53.612Z,1002.34
2017-07-27T08:08:34.288Z,1002.34
2017-07-27T08:09:14.888Z,1002.35
2017-07-27T08:09:55.498Z,1002.36
2017-07-27T08:10:36.132Z,1002.38
2017-07-27T08:11:16.682Z,1002.38
2017-07-27T08:11:57.232Z,1002.38
2017-07-27T08:12:37.827Z,1002.43
2017-07-27T08:13:18.477Z,1002.42
2017-07-27T08:13:59.257Z,1002.44
2017-07-27T08:14:39.734Z,1002.44
2017-07-27T08:15:20.246Z,1002.44